createdAt,value
2023-02-21T00:01:01.181Z,2.60
2023-02-21T00:03:46.875Z,2.93
2023-02-21T00:06:32.789Z,3.33
2023-02-21T00:09:18.746Z,3.03
2023-02-21T00:12:04.645Z,2.60
2023-02-21T00:14:50.281Z,2.60
2023-02-21T00:17:36.483Z,2.50
2023-02-21T00:20:22.414Z,4.63
2023-02-21T00:23:08.346Z,2.70
2023-02-21T00:25:54.446Z,3.20
2023-02-21T00:28:40.501Z,2.80
2023-02-21T00:31:26.476Z,2.70
2023-02-21T00:34:12.413Z,2.80
2023-02-21T00:36:58.295Z,3.60
2023-02-21T00:39:44.508Z,2.60
2023-02-21T00:42:30.321Z,2.70
2023-02-21T00:45:16.373Z,6.30
2023-02-21T00:48:02.135Z,3.00
2023-02-21T00:50:48.189Z,2.97
2023-02-21T00:53:34.236Z,2.97
2023-02-21T00:56:20.268Z,2.73
2023-02-21T00:59:06.224Z,2.90
2023-02-21T01:01:52.249Z,3.33
2023-02-21T01:04:38.365Z,3.37
2023-02-21T01:07:24.159Z,3.07
2023-02-21T01:10:09.988Z,3.00
2023-02-21T01:12:55.791Z,3.00
2023-02-21T01:15:41.577Z,3.07
2023-02-21T01:18:27.629Z,2.70
2023-02-21T01:21:13.882Z,2.97
2023-02-21T01:24:00.005Z,2.90
2023-02-21T01:26:46.077Z,3.33
2023-02-21T01:29:31.950Z,2.80
2023-02-21T01:32:17.908Z,3.83
2023-02-21T01:35:03.972Z,2.83
2023-02-21T01:37:49.634Z,2.77
2023-02-21T01:40:35.966Z,2.90
2023-02-21T01:43:21.850Z,2.80
2023-02-21T01:46:14.272Z,3.20
2023-02-21T01:49:00.126Z,2.70
2023-02-21T01:51:50.163Z,3.07
2023-02-21T01:54:37.587Z,3.23
2023-02-21T01:57:23.595Z,3.67
2023-02-21T02:00:11.915Z,2.90
2023-02-21T02:03:22.197Z,2.90
2023-02-21T02:06:21.160Z,2.80
2023-02-21T02:09:07.128Z,2.90
2023-02-21T02:12:21.720Z,4.67
2023-02-21T02:15:03.364Z,3.10
2023-02-21T02:17:42.350Z,3.00
2023-02-21T02:20:09.601Z,3.87
2023-02-21T02:23:06.491Z,3.10
2023-02-21T02:25:57.615Z,3.07
2023-02-21T02:28:55.045Z,3.13
2023-02-21T02:32:00.675Z,3.27
2023-02-21T02:34:48.709Z,3.03
2023-02-21T02:37:44.467Z,2.90
2023-02-21T02:40:21.730Z,3.33
2023-02-21T02:43:22.006Z,2.90
2023-02-21T02:45:58.727Z,3.00
2023-02-21T02:48:38.369Z,3.23
2023-02-21T02:51:12.281Z,3.83
2023-02-21T02:53:39.963Z,3.10
2023-02-21T02:56:10.911Z,3.33
2023-02-21T02:58:52.077Z,2.80
2023-02-21T03:01:53.499Z,3.57
2023-02-21T03:04:20.726Z,3.10
2023-02-21T03:06:53.601Z,2.90
2023-02-21T03:09:54.545Z,2.90
2023-02-21T03:12:32.943Z,3.00
2023-02-21T03:15:17.309Z,3.07
2023-02-21T03:17:53.156Z,3.10
2023-02-21T03:20:21.307Z,3.73
2023-02-21T03:22:50.973Z,3.77
2023-02-21T03:25:20.202Z,3.00
2023-02-21T03:27:48.729Z,3.27
2023-02-21T03:30:16.091Z,3.40
2023-02-21T03:32:50.314Z,2.83
2023-02-21T03:35:17.688Z,3.40
2023-02-21T03:37:49.774Z,3.23
2023-02-21T03:40:26.548Z,3.30
2023-02-21T03:42:55.462Z,4.23
2023-02-21T03:45:22.919Z,3.60
2023-02-21T03:47:50.222Z,3.20
2023-02-21T03:50:17.744Z,3.63
2023-02-21T03:52:44.953Z,2.90
2023-02-21T03:55:12.136Z,3.10
2023-02-21T03:57:39.335Z,3.20
2023-02-21T04:00:06.781Z,3.37
2023-02-21T04:02:34.008Z,3.00
2023-02-21T04:05:01.217Z,3.13
2023-02-21T04:07:28.415Z,3.10
2023-02-21T04:09:55.604Z,3.43
2023-02-21T04:12:22.969Z,3.40
2023-02-21T04:14:52.331Z,3.27
2023-02-21T04:17:19.634Z,3.17
2023-02-21T04:19:46.921Z,3.10
2023-02-21T04:22:14.083Z,3.40
2023-02-21T04:24:41.391Z,3.23
2023-02-21T04:27:08.808Z,3.10
2023-02-21T04:29:35.989Z,3.20
2023-02-21T04:32:03.321Z,2.97
2023-02-21T04:34:30.585Z,3.10
2023-02-21T04:36:57.754Z,3.30
2023-02-21T04:39:24.983Z,3.00
2023-02-21T04:41:52.190Z,3.10
2023-02-21T04:44:19.411Z,3.20
2023-02-21T04:46:46.687Z,3.00
2023-02-21T04:49:14.027Z,3.33
2023-02-21T04:51:41.297Z,3.00
2023-02-21T04:54:08.540Z,3.17
2023-02-21T04:56:35.817Z,3.40
2023-02-21T04:59:03.014Z,3.00
2023-02-21T05:01:31.453Z,3.20
2023-02-21T05:04:00.000Z,3.53
2023-02-21T05:06:28.575Z,3.37
2023-02-21T05:08:55.822Z,3.20
2023-02-21T05:11:23.900Z,3.30
2023-02-21T05:13:51.684Z,3.53
2023-02-21T05:16:19.369Z,3.10
2023-02-21T05:18:48.019Z,3.43
2023-02-21T05:21:16.281Z,3.30
2023-02-21T05:23:56.072Z,3.17
2023-02-21T05:26:29.884Z,3.10
2023-02-21T05:28:57.237Z,3.23
2023-02-21T05:31:24.565Z,3.10
2023-02-21T05:33:51.884Z,3.27
2023-02-21T05:36:19.259Z,3.43
2023-02-21T05:38:51.706Z,3.37
2023-02-21T05:41:19.399Z,3.57
2023-02-21T05:43:48.356Z,3.60
2023-02-21T05:46:28.769Z,3.37
2023-02-21T05:48:57.096Z,3.03
2023-02-21T05:51:24.545Z,3.17
2023-02-21T05:53:51.961Z,3.30
2023-02-21T05:56:20.254Z,3.20
2023-02-21T05:58:47.673Z,3.20
2023-02-21T06:01:15.245Z,3.33
2023-02-21T06:03:43.238Z,3.10
2023-02-21T06:06:10.458Z,3.30
2023-02-21T06:08:49.081Z,3.03
2023-02-21T06:11:22.585Z,3.10
2023-02-21T06:13:52.487Z,3.20
2023-02-21T06:16:19.695Z,3.00
2023-02-21T06:18:50.840Z,3.10
2023-02-21T06:21:18.210Z,3.20
2023-02-21T06:23:45.578Z,3.57
2023-02-21T06:26:12.793Z,3.20
2023-02-21T06:28:39.977Z,3.83
2023-02-21T06:31:07.436Z,3.33
2023-02-21T06:33:35.036Z,3.50
2023-02-21T06:36:22.930Z,3.50
2023-02-21T06:38:51.773Z,3.10
2023-02-21T06:41:29.803Z,3.10
2023-02-21T06:43:58.239Z,3.00
2023-02-21T06:46:28.149Z,3.90
2023-02-21T06:48:55.434Z,3.10
2023-02-21T06:51:29.653Z,4.27
2023-02-21T06:53:58.088Z,4.60
2023-02-21T06:56:25.428Z,3.43
2023-02-21T06:58:52.642Z,3.30
2023-02-21T07:01:20.358Z,3.30
2023-02-21T07:03:47.796Z,3.97
2023-02-21T07:06:15.250Z,3.93
2023-02-21T07:08:42.483Z,3.50
2023-02-21T07:11:10.050Z,3.40
2023-02-21T07:13:37.473Z,4.00
2023-02-21T07:16:05.073Z,3.33
2023-02-21T07:18:32.305Z,3.17
2023-02-21T07:20:59.556Z,3.13
2023-02-21T07:23:26.829Z,3.17
2023-02-21T07:25:54.019Z,3.33
2023-02-21T07:28:23.873Z,4.40
2023-02-21T07:30:51.113Z,3.20
2023-02-21T07:33:18.466Z,3.20
2023-02-21T07:35:46.466Z,3.07
2023-02-21T07:38:30.197Z,3.23
2023-02-21T07:41:03.131Z,3.93
2023-02-21T07:43:31.343Z,4.13
2023-02-21T07:45:58.561Z,3.10
2023-02-21T07:48:26.080Z,3.43
2023-02-21T07:50:53.370Z,2.90
2023-02-21T07:53:20.625Z,3.53
2023-02-21T07:55:47.937Z,3.37
2023-02-21T07:58:15.131Z,3.53
2023-02-21T08:00:42.357Z,3.40
2023-02-21T08:03:13.601Z,3.67
2023-02-21T08:05:41.028Z,2.80
2023-02-21T08:08:09.437Z,3.03
2023-02-21T08:10:37.056Z,3.57
2023-02-21T08:13:05.380Z,3.40
2023-02-21T08:15:32.691Z,3.30
2023-02-21T08:17:59.876Z,2.80
2023-02-21T08:20:27.175Z,2.80
2023-02-21T08:22:54.382Z,3.10
2023-02-21T08:25:21.722Z,3.07
2023-02-21T08:27:53.617Z,4.87
2023-02-21T08:30:21.299Z,3.90
2023-02-21T08:32:48.672Z,3.13
2023-02-21T08:35:16.920Z,2.80
2023-02-21T08:37:50.277Z,3.40
2023-02-21T08:40:20.416Z,3.70
2023-02-21T08:42:52.031Z,3.00
2023-02-21T08:45:20.872Z,2.70
2023-02-21T08:47:48.953Z,5.40
2023-02-21T08:50:16.237Z,2.40
2023-02-21T08:52:43.433Z,3.10
2023-02-21T08:55:10.694Z,2.70
2023-02-21T08:57:37.949Z,3.70
2023-02-21T09:00:07.067Z,2.60
2023-02-21T09:02:34.264Z,2.70
2023-02-21T09:05:01.523Z,2.60
2023-02-21T09:07:31.219Z,2.60
2023-02-21T09:10:01.002Z,2.73
2023-02-21T09:12:28.406Z,2.60
2023-02-21T09:14:55.652Z,2.70
2023-02-21T09:17:22.912Z,2.60
2023-02-21T09:19:50.106Z,3.23
2023-02-21T09:22:18.481Z,2.87
2023-02-21T09:24:45.717Z,2.70
2023-02-21T09:27:12.881Z,2.90
2023-02-21T09:29:46.223Z,2.70
2023-02-21T09:32:14.555Z,3.07
2023-02-21T09:34:41.815Z,2.63
2023-02-21T09:37:08.983Z,2.70
2023-02-21T09:39:39.320Z,2.83
2023-02-21T09:42:06.650Z,2.80
2023-02-21T09:44:33.917Z,2.47
2023-02-21T09:47:04.322Z,2.50
2023-02-21T09:49:38.874Z,2.80
2023-02-21T09:52:07.460Z,2.63
2023-02-21T09:54:39.041Z,2.70
2023-02-21T09:57:12.067Z,2.60
2023-02-21T09:59:39.293Z,2.30
2023-02-21T10:02:15.984Z,2.13
2023-02-21T10:05:17.698Z,2.23
2023-02-21T10:07:59.111Z,3.40
2023-02-21T10:10:55.500Z,2.97
2023-02-21T10:13:54.765Z,2.20
2023-02-21T10:16:34.040Z,2.90
2023-02-21T10:19:31.317Z,2.27
2023-02-21T10:21:58.854Z,2.30
2023-02-21T10:24:27.835Z,2.53
2023-02-21T10:27:15.280Z,2.20
2023-02-21T10:30:10.975Z,2.20
2023-02-21T10:32:38.595Z,2.30
2023-02-21T10:35:06.078Z,2.23
2023-02-21T10:37:49.756Z,2.30
2023-02-21T10:40:22.372Z,2.20
2023-02-21T10:42:54.780Z,2.40
2023-02-21T10:45:27.761Z,2.10
2023-02-21T10:48:03.349Z,2.30
2023-02-21T10:51:13.587Z,2.00
2023-02-21T10:53:43.157Z,2.13
2023-02-21T10:56:16.710Z,2.10
2023-02-21T10:58:59.780Z,2.00
2023-02-21T11:01:27.189Z,3.80
2023-02-21T11:03:57.966Z,2.30
2023-02-21T11:06:31.012Z,2.87
2023-02-21T11:08:58.896Z,2.23
2023-02-21T11:11:36.721Z,2.27
2023-02-21T11:14:21.509Z,1.87
2023-02-21T11:17:08.224Z,2.00
2023-02-21T11:20:08.054Z,2.00
2023-02-21T11:22:35.474Z,1.97
2023-02-21T11:25:28.616Z,1.90
2023-02-21T11:28:21.676Z,2.00
2023-02-21T11:31:02.889Z,2.20
2023-02-21T11:33:30.971Z,2.00
2023-02-21T11:36:14.379Z,2.00
2023-02-21T11:38:58.842Z,1.80
2023-02-21T11:41:49.292Z,3.37
2023-02-21T11:44:29.745Z,2.10
2023-02-21T11:47:07.519Z,2.07
2023-02-21T11:50:01.561Z,1.90
2023-02-21T11:52:40.824Z,1.80
2023-02-21T11:55:19.747Z,2.00
2023-02-21T11:58:06.281Z,1.90
2023-02-21T12:01:01.840Z,1.93
2023-02-21T12:03:54.343Z,1.80
2023-02-21T12:06:59.632Z,1.83
2023-02-21T12:09:37.156Z,1.60
2023-02-21T12:12:10.286Z,1.70
2023-02-21T12:15:14.553Z,2.00
2023-02-21T12:17:59.475Z,2.40
2023-02-21T12:20:50.259Z,2.07
2023-02-21T12:23:23.233Z,1.70
2023-02-21T12:26:06.746Z,1.90
2023-02-21T12:28:48.585Z,2.20
2023-02-21T12:31:31.399Z,2.07
2023-02-21T12:33:58.724Z,1.83
2023-02-21T12:37:04.056Z,2.10
2023-02-21T12:40:05.030Z,1.70
2023-02-21T12:42:47.153Z,1.93
2023-02-21T12:45:42.443Z,1.73
2023-02-21T12:48:48.041Z,2.00
2023-02-21T12:51:18.732Z,1.70
2023-02-21T12:53:45.914Z,2.07
2023-02-21T12:56:32.128Z,1.70
2023-02-21T12:59:07.420Z,1.83
2023-02-21T13:01:40.182Z,1.80
2023-02-21T13:04:52.989Z,1.97
2023-02-21T13:07:35.129Z,1.87
2023-02-21T13:10:26.563Z,1.83
2023-02-21T13:13:13.824Z,1.70
2023-02-21T13:15:43.607Z,1.77
2023-02-21T13:18:37.385Z,1.77
2023-02-21T13:21:28.793Z,1.87
2023-02-21T13:24:02.370Z,2.30
2023-02-21T13:26:48.167Z,1.80
2023-02-21T13:29:27.185Z,1.83
2023-02-21T13:32:20.251Z,2.03
2023-02-21T13:34:49.341Z,1.73
2023-02-21T13:37:24.906Z,1.70
2023-02-21T13:39:55.944Z,2.03
2023-02-21T13:42:26.875Z,1.50
2023-02-21T13:45:17.670Z,1.40
2023-02-21T13:47:53.505Z,1.83
2023-02-21T13:50:38.831Z,1.60
2023-02-21T13:53:08.669Z,1.70
2023-02-21T13:55:37.246Z,1.60
2023-02-21T13:58:05.458Z,1.97
2023-02-21T14:00:32.754Z,1.70
2023-02-21T14:03:07.044Z,1.60
2023-02-21T14:05:54.067Z,1.53
2023-02-21T14:08:41.152Z,1.50
2023-02-21T14:11:09.722Z,1.87
2023-02-21T14:13:36.861Z,1.73
2023-02-21T14:16:17.420Z,2.53
2023-02-21T14:18:55.876Z,1.60
2023-02-21T14:21:35.953Z,1.67
2023-02-21T14:24:25.357Z,1.63
2023-02-21T14:26:52.557Z,1.70
2023-02-21T14:29:41.856Z,1.50
2023-02-21T14:32:09.245Z,1.60
2023-02-21T14:34:57.242Z,1.63
2023-02-21T14:37:58.675Z,1.50
2023-02-21T14:40:44.563Z,1.60
2023-02-21T14:43:28.363Z,1.60
2023-02-21T14:45:58.223Z,1.73
2023-02-21T14:48:32.161Z,1.97
2023-02-21T14:51:30.446Z,1.93
2023-02-21T14:54:09.096Z,1.40
2023-02-21T14:57:13.573Z,1.53
2023-02-21T15:00:13.035Z,1.80
2023-02-21T15:03:07.768Z,1.73
2023-02-21T15:06:03.405Z,1.80
2023-02-21T15:08:44.162Z,1.60
2023-02-21T15:11:31.329Z,1.70
2023-02-21T15:14:29.486Z,1.80
2023-02-21T15:17:02.381Z,1.83
2023-02-21T15:19:33.031Z,1.80
2023-02-21T15:22:14.906Z,1.60
2023-02-21T15:24:42.697Z,1.60
2023-02-21T15:27:11.960Z,1.87
2023-02-21T15:29:40.225Z,1.60
2023-02-21T15:32:07.717Z,1.60
2023-02-21T15:34:46.581Z,1.60
2023-02-21T15:37:13.728Z,1.70
2023-02-21T15:39:43.865Z,1.63
2023-02-21T15:42:11.697Z,1.90
2023-02-21T15:44:45.787Z,1.83
2023-02-21T15:47:22.145Z,1.70
2023-02-21T15:50:07.732Z,1.30
2023-02-21T15:52:43.046Z,1.60
2023-02-21T15:55:18.760Z,1.60
2023-02-21T15:58:18.618Z,1.50
2023-02-21T16:00:48.231Z,1.53
2023-02-21T16:03:29.234Z,1.77
2023-02-21T16:06:11.654Z,2.80
2023-02-21T16:08:50.880Z,1.50
2023-02-21T16:11:18.567Z,1.50
2023-02-21T16:13:45.994Z,1.40
2023-02-21T16:16:13.372Z,1.60
2023-02-21T16:18:40.852Z,1.50
2023-02-21T16:21:21.545Z,1.60
2023-02-21T16:23:48.762Z,2.07
2023-02-21T16:26:16.847Z,1.60
2023-02-21T16:28:45.702Z,2.37
2023-02-21T16:31:23.840Z,1.80
2023-02-21T16:33:51.331Z,1.60
2023-02-21T16:36:28.071Z,1.97
2023-02-21T16:38:59.150Z,1.80
2023-02-21T16:41:26.636Z,1.80
2023-02-21T16:43:53.864Z,2.33
2023-02-21T16:46:29.655Z,3.27
2023-02-21T16:48:57.863Z,2.43
2023-02-21T16:51:25.124Z,2.83
2023-02-21T16:53:52.306Z,2.13
2023-02-21T16:56:19.725Z,1.30
2023-02-21T16:58:54.194Z,2.07
2023-02-21T17:01:28.345Z,2.17
2023-02-21T17:03:55.689Z,2.17
2023-02-21T17:06:24.839Z,1.60
2023-02-21T17:08:52.427Z,1.83
2023-02-21T17:11:19.845Z,1.70
2023-02-21T17:13:47.021Z,1.50
2023-02-21T17:16:14.429Z,1.60
2023-02-21T17:18:41.663Z,1.60
2023-02-21T17:21:08.898Z,1.77
2023-02-21T17:23:36.280Z,1.90
2023-02-21T17:26:03.731Z,1.70
2023-02-21T17:28:30.975Z,2.33
2023-02-21T17:30:58.266Z,2.53
2023-02-21T17:33:25.467Z,2.17
2023-02-21T17:35:55.385Z,2.23
2023-02-21T17:38:22.657Z,1.80
2023-02-21T17:40:49.876Z,2.30
2023-02-21T17:43:17.300Z,1.70
2023-02-21T17:45:46.143Z,2.20
2023-02-21T17:48:13.316Z,1.80
2023-02-21T17:50:40.546Z,1.97
2023-02-21T17:53:08.789Z,2.13
2023-02-21T17:55:36.102Z,2.20
2023-02-21T17:58:02.938Z,1.80
2023-02-21T18:00:35.132Z,1.90
2023-02-21T18:03:04.216Z,1.80
2023-02-21T18:05:31.840Z,1.90
2023-02-21T18:07:59.458Z,1.97
2023-02-21T18:10:27.192Z,2.00
2023-02-21T18:12:54.673Z,1.90
2023-02-21T18:15:24.414Z,2.73
2023-02-21T18:17:51.753Z,2.53
2023-02-21T18:20:19.249Z,2.20
2023-02-21T18:22:46.873Z,1.97
2023-02-21T18:25:15.950Z,2.93
2023-02-21T18:27:42.755Z,2.60
2023-02-21T18:30:10.447Z,1.90
2023-02-21T18:32:37.729Z,2.47
2023-02-21T18:35:07.598Z,4.33
2023-02-21T18:37:37.552Z,2.30
2023-02-21T18:40:08.426Z,2.83
2023-02-21T18:42:35.800Z,2.03
2023-02-21T18:45:02.703Z,1.97
2023-02-21T18:47:31.216Z,2.30
2023-02-21T18:49:58.521Z,1.90
2023-02-21T18:52:25.729Z,2.20
2023-02-21T18:54:53.001Z,2.20
2023-02-21T18:57:21.548Z,2.83
2023-02-21T18:59:48.827Z,2.10
2023-02-21T19:02:18.674Z,2.20
2023-02-21T19:04:45.621Z,2.27
2023-02-21T19:07:14.288Z,2.10
2023-02-21T19:09:41.634Z,3.03
2023-02-21T19:12:08.616Z,2.10
2023-02-21T19:14:37.013Z,2.37
2023-02-21T19:17:06.994Z,2.30
2023-02-21T19:19:34.953Z,2.30
2023-02-21T19:22:02.197Z,2.17
2023-02-21T19:24:29.445Z,2.20
2023-02-21T19:26:56.975Z,2.27
2023-02-21T19:29:24.241Z,2.50
2023-02-21T19:31:51.588Z,2.40
2023-02-21T19:34:18.852Z,2.20
2023-02-21T19:36:46.046Z,2.00
2023-02-21T19:39:13.779Z,2.30
2023-02-21T19:41:41.264Z,2.30
2023-02-21T19:44:08.678Z,2.43
2023-02-21T19:46:35.985Z,2.40
2023-02-21T19:49:03.167Z,3.83
2023-02-21T19:51:32.726Z,2.53
2023-02-21T19:54:00.262Z,2.43
2023-02-21T19:56:27.751Z,3.03
2023-02-21T19:58:54.958Z,3.53
2023-02-21T20:01:23.083Z,2.97
2023-02-21T20:03:50.557Z,2.47
2023-02-21T20:06:18.478Z,2.40
2023-02-21T20:08:48.916Z,2.70
2023-02-21T20:11:17.911Z,2.30
2023-02-21T20:13:45.385Z,2.53
2023-02-21T20:16:15.473Z,2.30
2023-02-21T20:18:43.578Z,4.57
2023-02-21T20:21:10.870Z,2.40
2023-02-21T20:23:38.018Z,2.30
2023-02-21T20:26:05.332Z,2.63
2023-02-21T20:28:33.216Z,2.30
2023-02-21T20:31:00.516Z,2.37
2023-02-21T20:33:27.745Z,3.83
2023-02-21T20:35:55.417Z,2.50
2023-02-21T20:38:22.623Z,2.30
2023-02-21T20:40:49.986Z,2.40
2023-02-21T20:43:17.152Z,2.40
2023-02-21T20:45:44.454Z,3.60
2023-02-21T20:48:11.812Z,2.40
2023-02-21T20:50:39.133Z,2.23
2023-02-21T20:53:06.315Z,2.40
2023-02-21T20:55:35.661Z,2.57
2023-02-21T20:58:02.974Z,2.63
2023-02-21T21:00:30.588Z,2.73
2023-02-21T21:02:57.894Z,2.37
2023-02-21T21:05:26.317Z,5.03
2023-02-21T21:07:55.722Z,2.60
2023-02-21T21:10:23.340Z,2.60
2023-02-21T21:12:51.495Z,2.80
2023-02-21T21:15:20.017Z,2.50
2023-02-21T21:17:48.234Z,2.40
2023-02-21T21:20:17.903Z,2.87
2023-02-21T21:22:45.226Z,6.43
2023-02-21T21:25:12.956Z,2.50
2023-02-21T21:27:42.360Z,2.50
2023-02-21T21:30:12.431Z,2.70
2023-02-21T21:32:40.857Z,3.43
2023-02-21T21:35:08.128Z,2.73
2023-02-21T21:37:35.971Z,2.53
2023-02-21T21:40:18.326Z,2.80
2023-02-21T21:42:50.549Z,2.60
2023-02-21T21:45:19.937Z,2.80
2023-02-21T21:47:48.814Z,2.93
2023-02-21T21:50:17.858Z,2.70
2023-02-21T21:52:48.884Z,3.57
2023-02-21T21:55:18.899Z,2.80
2023-02-21T21:57:46.127Z,2.60
2023-02-21T22:00:24.424Z,3.00
2023-02-21T22:02:58.198Z,2.83
2023-02-21T22:05:32.807Z,2.93
2023-02-21T22:08:00.136Z,2.47
2023-02-21T22:10:28.025Z,2.70
2023-02-21T22:12:56.762Z,3.10
2023-02-21T22:15:27.049Z,2.83
2023-02-21T22:17:55.014Z,3.13
2023-02-21T22:20:31.295Z,3.13
2023-02-21T22:22:59.330Z,3.03
2023-02-21T22:25:28.089Z,3.07
2023-02-21T22:27:55.336Z,2.80
2023-02-21T22:30:23.088Z,2.93
2023-02-21T22:32:50.534Z,3.20
2023-02-21T22:35:20.221Z,2.90
2023-02-21T22:37:52.516Z,3.10
2023-02-21T22:40:24.439Z,2.93
2023-02-21T22:42:56.636Z,3.67
2023-02-21T22:45:24.564Z,2.60
2023-02-21T22:47:53.961Z,3.07
2023-02-21T22:50:23.034Z,5.27
2023-02-21T22:52:58.333Z,3.40
2023-02-21T22:55:27.118Z,3.00
2023-02-21T22:57:56.416Z,3.00
2023-02-21T23:00:35.777Z,3.10
2023-02-21T23:03:13.124Z,3.00
2023-02-21T23:05:45.023Z,3.27
2023-02-21T23:08:14.365Z,3.53
2023-02-21T23:10:42.201Z,2.90
2023-02-21T23:13:14.372Z,3.00
2023-02-21T23:15:42.650Z,3.17
2023-02-21T23:18:10.877Z,3.20
2023-02-21T23:20:38.192Z,3.00
2023-02-21T23:23:05.775Z,2.80
2023-02-21T23:25:37.026Z,3.33
2023-02-21T23:28:09.330Z,2.90
2023-02-21T23:30:43.836Z,3.63
2023-02-21T23:33:16.363Z,2.70
2023-02-21T23:35:45.652Z,3.23
2023-02-21T23:38:15.879Z,3.03
2023-02-21T23:40:46.807Z,3.43
2023-02-21T23:43:16.002Z,2.90
2023-02-21T23:45:43.471Z,3.00
2023-02-21T23:48:15.739Z,3.00
2023-02-21T23:50:47.896Z,3.03
2023-02-21T23:53:18.053Z,2.80
2023-02-21T23:55:46.645Z,2.73
2023-02-21T23:58:19.036Z,2.80
